< < Back
Terminal Aerodrome Forecast


Current Version              Previous Versions:   1  2  3  4  5  6  7  8  9  

Terminal Aerodrome Forecast

683
FTUS42 KGSP 252056 AAA
TAFCLT
TAF AMD
KCLT 252056Z 2521/2618 25004KT P6SM SKC
     FM260000 31003KT P6SM SKC
     FM261400 32007KT P6SM SKC=

Latest METAR

852
SAUS70 KWBC 252200 RRE
MTRCLT
METAR KCLT 252152Z 25004KT 10SM FEW250 22/01 A2995 RMK AO2 SLP139
T02170011


USA.gov is the U.S. government's official web portal to all federal, state and local government web resources and services.